sensor_id;sensor_type;location;lat;lon;timestamp;P1;durP1;ratioP1;P2;durP2;ratioP2
74636;SDS011;63141;54.616;39.754;2023-07-22T00:00:59;1.30;;;1.00;;
74636;SDS011;63141;54.616;39.754;2023-07-22T00:04:01;1.95;;;1.20;;
74636;SDS011;63141;54.616;39.754;2023-07-22T00:07:05;1.60;;;1.20;;
74636;SDS011;63141;54.616;39.754;2023-07-22T00:10:07;1.55;;;1.05;;
74636;SDS011;63141;54.616;39.754;2023-07-22T00:13:08;3.70;;;0.90;;
74636;SDS011;63141;54.616;39.754;2023-07-22T00:16:10;1.52;;;0.98;;
74636;SDS011;63141;54.616;39.754;2023-07-22T00:19:11;4.90;;;1.20;;
74636;SDS011;63141;54.616;39.754;2023-07-22T00:22:15;2.80;;;1.33;;
74636;SDS011;63141;54.616;39.754;2023-07-22T00:25:16;3.65;;;1.20;;
74636;SDS011;63141;54.616;39.754;2023-07-22T00:28:17;3.17;;;1.10;;
74636;SDS011;63141;54.616;39.754;2023-07-22T00:31:19;2.42;;;1.10;;
74636;SDS011;63141;54.616;39.754;2023-07-22T00:34:20;1.77;;;1.00;;
74636;SDS011;63141;54.616;39.754;2023-07-22T00:37:24;3.50;;;1.38;;
74636;SDS011;63141;54.616;39.754;2023-07-22T00:40:26;2.83;;;1.20;;
74636;SDS011;63141;54.616;39.754;2023-07-22T00:43:27;1.83;;;1.13;;
74636;SDS011;63141;54.616;39.754;2023-07-22T00:46:29;2.80;;;1.17;;
74636;SDS011;63141;54.616;39.754;2023-07-22T00:49:30;1.30;;;1.00;;
74636;SDS011;63141;54.616;39.754;2023-07-22T00:52:32;2.58;;;1.15;;
74636;SDS011;63141;54.616;39.754;2023-07-22T00:55:34;1.67;;;0.93;;
74636;SDS011;63141;54.616;39.754;2023-07-22T00:58:36;1.88;;;1.15;;
74636;SDS011;63141;54.616;39.754;2023-07-22T01:01:40;1.98;;;1.10;;
74636;SDS011;63141;54.616;39.754;2023-07-22T01:04:42;3.17;;;1.17;;
74636;SDS011;63141;54.616;39.754;2023-07-22T01:07:46;1.10;;;1.00;;
74636;SDS011;63141;54.616;39.754;2023-07-22T01:10:47;2.75;;;1.08;;
74636;SDS011;63141;54.616;39.754;2023-07-22T01:13:49;2.70;;;1.15;;
74636;SDS011;63141;54.616;39.754;2023-07-22T01:16:50;1.77;;;0.88;;
74636;SDS011;63141;54.616;39.754;2023-07-22T01:19:52;2.25;;;0.90;;
74636;SDS011;63141;54.616;39.754;2023-07-22T01:22:53;2.20;;;0.90;;
74636;SDS011;63141;54.616;39.754;2023-07-22T01:25:55;4.45;;;1.15;;
74636;SDS011;63141;54.616;39.754;2023-07-22T01:29:06;3.30;;;1.58;;
74636;SDS011;63141;54.616;39.754;2023-07-22T01:32:10;2.78;;;1.20;;
74636;SDS011;63141;54.616;39.754;2023-07-22T01:35:11;1.67;;;1.05;;
74636;SDS011;63141;54.616;39.754;2023-07-22T01:38:15;3.28;;;1.20;;
74636;SDS011;63141;54.616;39.754;2023-07-22T01:41:17;1.85;;;0.90;;
74636;SDS011;63141;54.616;39.754;2023-07-22T01:44:18;1.40;;;1.00;;
74636;SDS011;63141;54.616;39.754;2023-07-22T01:47:19;0.77;;;0.70;;
74636;SDS011;63141;54.616;39.754;2023-07-22T01:50:21;4.72;;;1.33;;
74636;SDS011;63141;54.616;39.754;2023-07-22T01:53:22;4.07;;;1.00;;
74636;SDS011;63141;54.616;39.754;2023-07-22T01:56:24;1.42;;;1.10;;
74636;SDS011;63141;54.616;39.754;2023-07-22T01:59:25;4.25;;;1.10;;
74636;SDS011;63141;54.616;39.754;2023-07-22T02:02:29;1.33;;;1.00;;
74636;SDS011;63141;54.616;39.754;2023-07-22T02:05:31;1.35;;;1.00;;
74636;SDS011;63141;54.616;39.754;2023-07-22T02:08:35;1.75;;;1.10;;
74636;SDS011;63141;54.616;39.754;2023-07-22T02:11:37;3.25;;;1.00;;
74636;SDS011;63141;54.616;39.754;2023-07-22T02:14:39;3.38;;;1.02;;
74636;SDS011;63141;54.616;39.754;2023-07-22T02:17:40;1.85;;;1.17;;
74636;SDS011;63141;54.616;39.754;2023-07-22T02:20:42;1.88;;;1.00;;
74636;SDS011;63141;54.616;39.754;2023-07-22T02:23:44;4.25;;;1.08;;
74636;SDS011;63141;54.616;39.754;2023-07-22T02:26:45;2.40;;;0.88;;
74636;SDS011;63141;54.616;39.754;2023-07-22T02:29:46;3.05;;;1.00;;
74636;SDS011;63141;54.616;39.754;2023-07-22T02:32:48;1.70;;;1.10;;
74636;SDS011;63141;54.616;39.754;2023-07-22T02:35:49;2.75;;;1.00;;
74636;SDS011;63141;54.616;39.754;2023-07-22T02:38:50;5.30;;;1.20;;
74636;SDS011;63141;54.616;39.754;2023-07-22T02:41:52;1.10;;;0.98;;
74636;SDS011;63141;54.616;39.754;2023-07-22T02:44:53;1.40;;;1.10;;
74636;SDS011;63141;54.616;39.754;2023-07-22T02:47:54;0.95;;;0.82;;
74636;SDS011;63141;54.616;39.754;2023-07-22T02:51:01;4.20;;;1.00;;
74636;SDS011;63141;54.616;39.754;2023-07-22T02:54:11;3.08;;;1.10;;
74636;SDS011;63141;54.616;39.754;2023-07-22T02:57:13;2.25;;;0.90;;
74636;SDS011;63141;54.616;39.754;2023-07-22T03:00:15;1.40;;;0.90;;
74636;SDS011;63141;54.616;39.754;2023-07-22T03:03:27;4.50;;;1.00;;
74636;SDS011;63141;54.616;39.754;2023-07-22T03:06:28;1.15;;;0.80;;
74636;SDS011;63141;54.616;39.754;2023-07-22T03:09:32;2.22;;;1.00;;
74636;SDS011;63141;54.616;39.754;2023-07-22T03:12:33;2.42;;;0.98;;
74636;SDS011;63141;54.616;39.754;2023-07-22T03:15:35;2.22;;;0.90;;
74636;SDS011;63141;54.616;39.754;2023-07-22T03:18:37;1.80;;;0.93;;
74636;SDS011;63141;54.616;39.754;2023-07-22T03:21:40;2.08;;;1.00;;
74636;SDS011;63141;54.616;39.754;2023-07-22T03:24:42;2.40;;;1.00;;
74636;SDS011;63141;54.616;39.754;2023-07-22T03:27:46;2.40;;;0.88;;
74636;SDS011;63141;54.616;39.754;2023-07-22T03:30:48;1.50;;;1.10;;
74636;SDS011;63141;54.616;39.754;2023-07-22T03:33:49;3.88;;;1.10;;
74636;SDS011;63141;54.616;39.754;2023-07-22T03:36:50;2.95;;;0.93;;
74636;SDS011;63141;54.616;39.754;2023-07-22T03:39:52;1.13;;;0.77;;
74636;SDS011;63141;54.616;39.754;2023-07-22T03:42:54;2.05;;;0.93;;
74636;SDS011;63141;54.616;39.754;2023-07-22T03:45:56;0.90;;;0.70;;
74636;SDS011;63141;54.616;39.754;2023-07-22T03:48:58;3.33;;;1.00;;
74636;SDS011;63141;54.616;39.754;2023-07-22T03:51:59;2.13;;;1.10;;
74636;SDS011;63141;54.616;39.754;2023-07-22T03:55:00;2.60;;;1.00;;
74636;SDS011;63141;54.616;39.754;2023-07-22T03:58:02;3.88;;;1.00;;
74636;SDS011;63141;54.616;39.754;2023-07-22T04:01:06;0.73;;;0.60;;
74636;SDS011;63141;54.616;39.754;2023-07-22T04:04:07;2.15;;;0.90;;
74636;SDS011;63141;54.616;39.754;2023-07-22T04:07:11;6.13;;;1.00;;
74636;SDS011;63141;54.616;39.754;2023-07-22T04:10:12;4.10;;;0.80;;
74636;SDS011;63141;54.616;39.754;2023-07-22T04:13:13;4.38;;;1.10;;
74636;SDS011;63141;54.616;39.754;2023-07-22T04:16:15;3.40;;;1.13;;
74636;SDS011;63141;54.616;39.754;2023-07-22T04:19:16;7.10;;;1.20;;
74636;SDS011;63141;54.616;39.754;2023-07-22T04:22:18;4.32;;;0.98;;
74636;SDS011;63141;54.616;39.754;2023-07-22T04:25:20;5.70;;;1.10;;
74636;SDS011;63141;54.616;39.754;2023-07-22T04:28:22;2.10;;;0.80;;
74636;SDS011;63141;54.616;39.754;2023-07-22T04:31:23;2.85;;;0.90;;
74636;SDS011;63141;54.616;39.754;2023-07-22T04:34:27;2.40;;;0.90;;
74636;SDS011;63141;54.616;39.754;2023-07-22T04:37:29;1.55;;;1.00;;
74636;SDS011;63141;54.616;39.754;2023-07-22T04:40:31;3.75;;;1.20;;
74636;SDS011;63141;54.616;39.754;2023-07-22T04:43:32;3.42;;;1.00;;
74636;SDS011;63141;54.616;39.754;2023-07-22T04:46:34;3.35;;;1.17;;
74636;SDS011;63141;54.616;39.754;2023-07-22T04:49:36;1.70;;;0.95;;
74636;SDS011;63141;54.616;39.754;2023-07-22T04:52:37;2.50;;;1.05;;
74636;SDS011;63141;54.616;39.754;2023-07-22T04:55:39;2.33;;;1.10;;
74636;SDS011;63141;54.616;39.754;2023-07-22T04:58:41;3.97;;;1.02;;
74636;SDS011;63141;54.616;39.754;2023-07-22T05:01:47;1.17;;;0.73;;
74636;SDS011;63141;54.616;39.754;2023-07-22T05:04:48;2.83;;;1.00;;
74636;SDS011;63141;54.616;39.754;2023-07-22T05:07:52;4.15;;;1.30;;
74636;SDS011;63141;54.616;39.754;2023-07-22T05:10:53;5.63;;;1.00;;
74636;SDS011;63141;54.616;39.754;2023-07-22T05:13:54;5.03;;;1.20;;
74636;SDS011;63141;54.616;39.754;2023-07-22T05:16:56;2.88;;;0.90;;
74636;SDS011;63141;54.616;39.754;2023-07-22T05:19:57;4.47;;;1.10;;
74636;SDS011;63141;54.616;39.754;2023-07-22T05:22:59;2.70;;;1.27;;
74636;SDS011;63141;54.616;39.754;2023-07-22T05:26:00;5.57;;;1.00;;
74636;SDS011;63141;54.616;39.754;2023-07-22T05:29:01;3.55;;;1.20;;
74636;SDS011;63141;54.616;39.754;2023-07-22T05:32:03;2.60;;;1.02;;
74636;SDS011;63141;54.616;39.754;2023-07-22T05:35:05;1.30;;;1.10;;
74636;SDS011;63141;54.616;39.754;2023-07-22T05:38:07;2.67;;;1.20;;
74636;SDS011;63141;54.616;39.754;2023-07-22T05:41:08;7.95;;;1.10;;
74636;SDS011;63141;54.616;39.754;2023-07-22T05:44:10;2.47;;;1.02;;
74636;SDS011;63141;54.616;39.754;2023-07-22T05:47:11;2.20;;;0.90;;
74636;SDS011;63141;54.616;39.754;2023-07-22T05:50:12;4.93;;;0.95;;
74636;SDS011;63141;54.616;39.754;2023-07-22T05:53:14;4.63;;;1.33;;
74636;SDS011;63141;54.616;39.754;2023-07-22T05:56:15;8.50;;;1.27;;
74636;SDS011;63141;54.616;39.754;2023-07-22T05:59:16;5.22;;;1.35;;
74636;SDS011;63141;54.616;39.754;2023-07-22T06:02:20;6.40;;;1.52;;
74636;SDS011;63141;54.616;39.754;2023-07-22T06:05:22;1.73;;;1.08;;
74636;SDS011;63141;54.616;39.754;2023-07-22T06:08:26;1.95;;;1.35;;
74636;SDS011;63141;54.616;39.754;2023-07-22T06:11:27;1.40;;;1.17;;
74636;SDS011;63141;54.616;39.754;2023-07-22T06:14:29;2.45;;;1.25;;
74636;SDS011;63141;54.616;39.754;2023-07-22T06:17:30;3.20;;;1.40;;
74636;SDS011;63141;54.616;39.754;2023-07-22T06:20:32;2.05;;;1.20;;
74636;SDS011;63141;54.616;39.754;2023-07-22T06:23:33;2.88;;;1.20;;
74636;SDS011;63141;54.616;39.754;2023-07-22T06:26:34;4.13;;;1.20;;
74636;SDS011;63141;54.616;39.754;2023-07-22T06:29:36;1.65;;;1.10;;
74636;SDS011;63141;54.616;39.754;2023-07-22T06:32:37;7.63;;;1.27;;
74636;SDS011;63141;54.616;39.754;2023-07-22T06:35:39;4.80;;;1.25;;
74636;SDS011;63141;54.616;39.754;2023-07-22T06:38:40;5.28;;;1.00;;
74636;SDS011;63141;54.616;39.754;2023-07-22T06:41:42;6.30;;;1.27;;
74636;SDS011;63141;54.616;39.754;2023-07-22T06:44:43;4.45;;;1.40;;
74636;SDS011;63141;54.616;39.754;2023-07-22T06:47:45;4.00;;;1.65;;
74636;SDS011;63141;54.616;39.754;2023-07-22T06:50:48;8.57;;;1.52;;
74636;SDS011;63141;54.616;39.754;2023-07-22T06:53:50;3.67;;;1.70;;
74636;SDS011;63141;54.616;39.754;2023-07-22T06:56:51;3.58;;;1.67;;
74636;SDS011;63141;54.616;39.754;2023-07-22T06:59:56;2.33;;;1.38;;
74636;SDS011;63141;54.616;39.754;2023-07-22T07:02:59;2.67;;;1.40;;
74636;SDS011;63141;54.616;39.754;2023-07-22T07:06:01;6.85;;;1.50;;
74636;SDS011;63141;54.616;39.754;2023-07-22T07:09:05;5.45;;;1.40;;
74636;SDS011;63141;54.616;39.754;2023-07-22T07:12:06;3.53;;;1.55;;
74636;SDS011;63141;54.616;39.754;2023-07-22T07:15:08;2.55;;;1.35;;
74636;SDS011;63141;54.616;39.754;2023-07-22T07:18:10;4.32;;;1.63;;
74636;SDS011;63141;54.616;39.754;2023-07-22T07:21:11;1.50;;;0.98;;
74636;SDS011;63141;54.616;39.754;2023-07-22T07:24:12;4.80;;;1.40;;
74636;SDS011;63141;54.616;39.754;2023-07-22T07:27:14;2.40;;;1.15;;
74636;SDS011;63141;54.616;39.754;2023-07-22T07:30:15;3.53;;;1.30;;
74636;SDS011;63141;54.616;39.754;2023-07-22T07:33:17;3.50;;;1.00;;
74636;SDS011;63141;54.616;39.754;2023-07-22T07:36:18;5.63;;;1.38;;
74636;SDS011;63141;54.616;39.754;2023-07-22T07:39:19;4.10;;;1.33;;
74636;SDS011;63141;54.616;39.754;2023-07-22T07:42:21;2.85;;;1.10;;
74636;SDS011;63141;54.616;39.754;2023-07-22T07:45:22;5.03;;;1.00;;
74636;SDS011;63141;54.616;39.754;2023-07-22T07:48:23;2.15;;;1.20;;
74636;SDS011;63141;54.616;39.754;2023-07-22T07:51:25;2.35;;;1.10;;
74636;SDS011;63141;54.616;39.754;2023-07-22T07:54:27;2.00;;;1.13;;
74636;SDS011;63141;54.616;39.754;2023-07-22T07:57:29;4.55;;;0.95;;
74636;SDS011;63141;54.616;39.754;2023-07-22T08:00:30;5.80;;;1.10;;
74636;SDS011;63141;54.616;39.754;2023-07-22T08:03:37;4.18;;;1.38;;
74636;SDS011;63141;54.616;39.754;2023-07-22T08:06:40;2.42;;;1.02;;
74636;SDS011;63141;54.616;39.754;2023-07-22T08:09:41;4.97;;;1.05;;
74636;SDS011;63141;54.616;39.754;2023-07-22T08:12:43;3.22;;;1.13;;
74636;SDS011;63141;54.616;39.754;2023-07-22T08:15:45;2.63;;;1.15;;
74636;SDS011;63141;54.616;39.754;2023-07-22T08:18:46;3.88;;;1.55;;
74636;SDS011;63141;54.616;39.754;2023-07-22T08:21:48;4.95;;;0.95;;
74636;SDS011;63141;54.616;39.754;2023-07-22T08:24:49;1.85;;;0.93;;
74636;SDS011;63141;54.616;39.754;2023-07-22T08:27:50;9.88;;;1.00;;
74636;SDS011;63141;54.616;39.754;2023-07-22T08:30:55;2.63;;;1.00;;
74636;SDS011;63141;54.616;39.754;2023-07-22T08:33:57;4.72;;;0.90;;
74636;SDS011;63141;54.616;39.754;2023-07-22T08:36:58;3.60;;;1.10;;
74636;SDS011;63141;54.616;39.754;2023-07-22T08:39:59;3.97;;;1.00;;
74636;SDS011;63141;54.616;39.754;2023-07-22T08:43:01;5.60;;;0.93;;
74636;SDS011;63141;54.616;39.754;2023-07-22T08:46:04;3.80;;;0.90;;
74636;SDS011;63141;54.616;39.754;2023-07-22T08:49:08;3.05;;;0.77;;
74636;SDS011;63141;54.616;39.754;2023-07-22T08:52:11;4.65;;;0.85;;
74636;SDS011;63141;54.616;39.754;2023-07-22T08:55:15;2.95;;;1.00;;
74636;SDS011;63141;54.616;39.754;2023-07-22T08:58:17;7.18;;;1.25;;
74636;SDS011;63141;54.616;39.754;2023-07-22T09:01:21;3.42;;;1.00;;
74636;SDS011;63141;54.616;39.754;2023-07-22T09:04:24;8.82;;;4.32;;
74636;SDS011;63141;54.616;39.754;2023-07-22T09:07:28;52.63;;;26.48;;
74636;SDS011;63141;54.616;39.754;2023-07-22T09:10:30;106.45;;;49.42;;
74636;SDS011;63141;54.616;39.754;2023-07-22T09:13:33;99.20;;;51.38;;
74636;SDS011;63141;54.616;39.754;2023-07-22T09:16:35;128.75;;;60.20;;
74636;SDS011;63141;54.616;39.754;2023-07-22T09:19:37;130.10;;;66.07;;
74636;SDS011;63141;54.616;39.754;2023-07-22T09:22:39;121.25;;;58.78;;
74636;SDS011;63141;54.616;39.754;2023-07-22T09:25:47;114.15;;;52.35;;
74636;SDS011;63141;54.616;39.754;2023-07-22T09:28:53;90.57;;;45.95;;
74636;SDS011;63141;54.616;39.754;2023-07-22T09:31:56;120.38;;;62.50;;
74636;SDS011;63141;54.616;39.754;2023-07-22T09:34:57;140.18;;;69.25;;
74636;SDS011;63141;54.616;39.754;2023-07-22T09:37:59;118.57;;;58.95;;
74636;SDS011;63141;54.616;39.754;2023-07-22T09:41:03;118.22;;;56.95;;
74636;SDS011;63141;54.616;39.754;2023-07-22T09:44:06;123.88;;;61.50;;
74636;SDS011;63141;54.616;39.754;2023-07-22T09:47:11;119.47;;;59.73;;
74636;SDS011;63141;54.616;39.754;2023-07-22T09:50:14;93.20;;;47.55;;
74636;SDS011;63141;54.616;39.754;2023-07-22T09:53:17;92.75;;;46.17;;
74636;SDS011;63141;54.616;39.754;2023-07-22T09:56:19;82.63;;;41.35;;
74636;SDS011;63141;54.616;39.754;2023-07-22T09:59:20;87.15;;;41.00;;
74636;SDS011;63141;54.616;39.754;2023-07-22T10:02:26;70.47;;;38.20;;
74636;SDS011;63141;54.616;39.754;2023-07-22T10:05:28;73.50;;;39.45;;
74636;SDS011;63141;54.616;39.754;2023-07-22T10:08:33;64.70;;;33.22;;
74636;SDS011;63141;54.616;39.754;2023-07-22T10:11:36;65.25;;;35.00;;
74636;SDS011;63141;54.616;39.754;2023-07-22T10:14:37;57.75;;;31.25;;
74636;SDS011;63141;54.616;39.754;2023-07-22T10:17:42;61.92;;;31.80;;
74636;SDS011;63141;54.616;39.754;2023-07-22T10:20:44;51.20;;;28.95;;
74636;SDS011;63141;54.616;39.754;2023-07-22T10:23:47;57.53;;;28.98;;
74636;SDS011;63141;54.616;39.754;2023-07-22T10:26:49;49.97;;;27.55;;
74636;SDS011;63141;54.616;39.754;2023-07-22T10:29:53;52.63;;;26.67;;
74636;SDS011;63141;54.616;39.754;2023-07-22T10:32:55;56.78;;;28.73;;
74636;SDS011;63141;54.616;39.754;2023-07-22T10:36:06;48.83;;;24.88;;
74636;SDS011;63141;54.616;39.754;2023-07-22T10:39:09;50.67;;;26.88;;
74636;SDS011;63141;54.616;39.754;2023-07-22T10:46:59;57.15;;;29.80;;
74636;SDS011;63141;54.616;39.754;2023-07-22T10:50:07;55.63;;;28.63;;
74636;SDS011;63141;54.616;39.754;2023-07-22T10:53:11;66.70;;;29.23;;
74636;SDS011;63141;54.616;39.754;2023-07-22T10:56:15;66.03;;;30.80;;
74636;SDS011;63141;54.616;39.754;2023-07-22T10:59:25;60.83;;;30.65;;
74636;SDS011;63141;54.616;39.754;2023-07-22T11:02:30;64.78;;;31.25;;
74636;SDS011;63141;54.616;39.754;2023-07-22T11:08:51;75.70;;;32.70;;
74636;SDS011;63141;54.616;39.754;2023-07-22T11:11:54;64.90;;;29.70;;
74636;SDS011;63141;54.616;39.754;2023-07-22T11:15:02;71.43;;;30.15;;
74636;SDS011;63141;54.616;39.754;2023-07-22T11:18:06;59.50;;;28.23;;
74636;SDS011;63141;54.616;39.754;2023-07-22T11:21:11;62.40;;;27.75;;
74636;SDS011;63141;54.616;39.754;2023-07-22T11:24:13;53.88;;;26.00;;
74636;SDS011;63141;54.616;39.754;2023-07-22T11:27:15;64.90;;;27.08;;
74636;SDS011;63141;54.616;39.754;2023-07-22T11:35:03;41.63;;;20.65;;
74636;SDS011;63141;54.616;39.754;2023-07-22T11:38:05;45.60;;;20.75;;
74636;SDS011;63141;54.616;39.754;2023-07-22T11:41:06;40.15;;;20.58;;
74636;SDS011;63141;54.616;39.754;2023-07-22T11:44:11;39.85;;;18.77;;
74636;SDS011;63141;54.616;39.754;2023-07-22T11:47:14;38.17;;;18.52;;
74636;SDS011;63141;54.616;39.754;2023-07-22T11:50:15;39.85;;;18.95;;
74636;SDS011;63141;54.616;39.754;2023-07-22T11:53:17;39.70;;;19.13;;
74636;SDS011;63141;54.616;39.754;2023-07-22T11:56:27;35.63;;;17.55;;
74636;SDS011;63141;54.616;39.754;2023-07-22T11:59:36;30.30;;;15.88;;
74636;SDS011;63141;54.616;39.754;2023-07-22T12:02:41;34.60;;;16.05;;
74636;SDS011;63141;54.616;39.754;2023-07-22T12:05:43;31.10;;;14.82;;
74636;SDS011;63141;54.616;39.754;2023-07-22T12:08:47;32.90;;;14.63;;
74636;SDS011;63141;54.616;39.754;2023-07-22T12:11:54;30.17;;;15.57;;
74636;SDS011;63141;54.616;39.754;2023-07-22T12:15:01;31.38;;;15.82;;
74636;SDS011;63141;54.616;39.754;2023-07-22T12:18:09;30.77;;;13.95;;
74636;SDS011;63141;54.616;39.754;2023-07-22T12:21:11;25.00;;;13.55;;
74636;SDS011;63141;54.616;39.754;2023-07-22T12:24:13;25.20;;;12.55;;
74636;SDS011;63141;54.616;39.754;2023-07-22T12:27:15;25.08;;;11.93;;
74636;SDS011;63141;54.616;39.754;2023-07-22T12:30:17;21.05;;;11.23;;
74636;SDS011;63141;54.616;39.754;2023-07-22T12:33:18;20.45;;;10.13;;
74636;SDS011;63141;54.616;39.754;2023-07-22T12:36:20;21.15;;;10.93;;
74636;SDS011;63141;54.616;39.754;2023-07-22T12:39:21;24.05;;;10.00;;
74636;SDS011;63141;54.616;39.754;2023-07-22T12:42:22;16.55;;;9.57;;
74636;SDS011;63141;54.616;39.754;2023-07-22T12:45:24;17.58;;;10.18;;
74636;SDS011;63141;54.616;39.754;2023-07-22T12:53:13;16.48;;;7.75;;
74636;SDS011;63141;54.616;39.754;2023-07-22T12:56:15;13.90;;;7.40;;
74636;SDS011;63141;54.616;39.754;2023-07-22T12:59:16;15.77;;;7.03;;
74636;SDS011;63141;54.616;39.754;2023-07-22T13:02:20;12.52;;;6.30;;
74636;SDS011;63141;54.616;39.754;2023-07-22T13:05:21;12.75;;;6.20;;
74636;SDS011;63141;54.616;39.754;2023-07-22T13:08:26;11.48;;;6.15;;
74636;SDS011;63141;54.616;39.754;2023-07-22T13:11:27;12.63;;;6.03;;
74636;SDS011;63141;54.616;39.754;2023-07-22T13:14:28;13.38;;;6.05;;
74636;SDS011;63141;54.616;39.754;2023-07-22T13:17:30;10.98;;;5.70;;
74636;SDS011;63141;54.616;39.754;2023-07-22T13:20:32;11.20;;;5.45;;
74636;SDS011;63141;54.616;39.754;2023-07-22T13:23:33;7.75;;;4.80;;
74636;SDS011;63141;54.616;39.754;2023-07-22T13:26:35;10.82;;;5.03;;
74636;SDS011;63141;54.616;39.754;2023-07-22T13:29:36;9.05;;;4.70;;
74636;SDS011;63141;54.616;39.754;2023-07-22T13:32:38;7.10;;;4.35;;
74636;SDS011;63141;54.616;39.754;2023-07-22T13:35:39;6.20;;;3.58;;
74636;SDS011;63141;54.616;39.754;2023-07-22T13:38:40;8.48;;;3.83;;
74636;SDS011;63141;54.616;39.754;2023-07-22T13:41:42;9.82;;;4.00;;
74636;SDS011;63141;54.616;39.754;2023-07-22T13:44:43;7.75;;;4.07;;
74636;SDS011;63141;54.616;39.754;2023-07-22T13:47:45;5.45;;;3.33;;
74636;SDS011;63141;54.616;39.754;2023-07-22T13:50:46;6.85;;;3.75;;
74636;SDS011;63141;54.616;39.754;2023-07-22T13:53:47;6.50;;;3.40;;
74636;SDS011;63141;54.616;39.754;2023-07-22T13:56:49;5.93;;;3.08;;
74636;SDS011;63141;54.616;39.754;2023-07-22T14:03:33;4.95;;;2.65;;
74636;SDS011;63141;54.616;39.754;2023-07-22T14:06:35;3.83;;;2.50;;
74636;SDS011;63141;54.616;39.754;2023-07-22T14:09:38;5.68;;;2.50;;
74636;SDS011;63141;54.616;39.754;2023-07-22T14:12:40;3.92;;;2.55;;
74636;SDS011;63141;54.616;39.754;2023-07-22T14:15:41;5.07;;;2.28;;
74636;SDS011;63141;54.616;39.754;2023-07-22T14:18:43;6.47;;;2.60;;
74636;SDS011;63141;54.616;39.754;2023-07-22T14:21:44;4.00;;;2.60;;
74636;SDS011;63141;54.616;39.754;2023-07-22T14:24:45;3.30;;;2.47;;
74636;SDS011;63141;54.616;39.754;2023-07-22T14:27:47;3.78;;;2.17;;
74636;SDS011;63141;54.616;39.754;2023-07-22T14:30:48;2.65;;;1.80;;
74636;SDS011;63141;54.616;39.754;2023-07-22T14:33:49;3.78;;;1.98;;
74636;SDS011;63141;54.616;39.754;2023-07-22T14:36:51;4.78;;;1.88;;
74636;SDS011;63141;54.616;39.754;2023-07-22T14:39:52;4.95;;;1.77;;
74636;SDS011;63141;54.616;39.754;2023-07-22T14:42:53;3.55;;;1.77;;
74636;SDS011;63141;54.616;39.754;2023-07-22T14:45:55;2.90;;;1.92;;
74636;SDS011;63141;54.616;39.754;2023-07-22T14:48:56;4.45;;;2.40;;
74636;SDS011;63141;54.616;39.754;2023-07-22T14:56:45;4.63;;;1.88;;
74636;SDS011;63141;54.616;39.754;2023-07-22T14:59:46;3.80;;;1.80;;
74636;SDS011;63141;54.616;39.754;2023-07-22T15:02:49;3.92;;;1.88;;
74636;SDS011;63141;54.616;39.754;2023-07-22T15:05:55;2.72;;;1.63;;
74636;SDS011;63141;54.616;39.754;2023-07-22T15:08:57;2.47;;;1.63;;
74636;SDS011;63141;54.616;39.754;2023-07-22T15:11:58;2.10;;;1.67;;
74636;SDS011;63141;54.616;39.754;2023-07-22T15:15:00;2.03;;;1.65;;
74636;SDS011;63141;54.616;39.754;2023-07-22T15:18:02;3.63;;;1.60;;
74636;SDS011;63141;54.616;39.754;2023-07-22T15:21:03;2.42;;;1.60;;
74636;SDS011;63141;54.616;39.754;2023-07-22T15:24:04;1.88;;;1.30;;
74636;SDS011;63141;54.616;39.754;2023-07-22T15:27:06;2.15;;;1.60;;
74636;SDS011;63141;54.616;39.754;2023-07-22T15:30:07;3.47;;;1.40;;
74636;SDS011;63141;54.616;39.754;2023-07-22T15:33:09;2.63;;;1.80;;
74636;SDS011;63141;54.616;39.754;2023-07-22T15:36:10;2.42;;;1.58;;
74636;SDS011;63141;54.616;39.754;2023-07-22T15:39:12;2.30;;;1.38;;
74636;SDS011;63141;54.616;39.754;2023-07-22T15:42:13;2.95;;;1.83;;
74636;SDS011;63141;54.616;39.754;2023-07-22T15:45:14;2.53;;;1.45;;
74636;SDS011;63141;54.616;39.754;2023-07-22T15:48:16;2.45;;;1.50;;
74636;SDS011;63141;54.616;39.754;2023-07-22T15:51:17;2.72;;;1.33;;
74636;SDS011;63141;54.616;39.754;2023-07-22T15:54:18;2.92;;;1.38;;
74636;SDS011;63141;54.616;39.754;2023-07-22T15:57:20;2.15;;;1.40;;
74636;SDS011;63141;54.616;39.754;2023-07-22T16:00:22;4.07;;;1.50;;
74636;SDS011;63141;54.616;39.754;2023-07-22T16:03:28;2.17;;;1.40;;
74636;SDS011;63141;54.616;39.754;2023-07-22T16:06:29;3.05;;;1.67;;
74636;SDS011;63141;54.616;39.754;2023-07-22T16:09:31;1.83;;;1.20;;
74636;SDS011;63141;54.616;39.754;2023-07-22T16:12:32;2.20;;;1.17;;
74636;SDS011;63141;54.616;39.754;2023-07-22T16:15:34;2.05;;;1.38;;
74636;SDS011;63141;54.616;39.754;2023-07-22T16:18:35;1.35;;;1.20;;
74636;SDS011;63141;54.616;39.754;2023-07-22T16:21:37;2.00;;;1.50;;
74636;SDS011;63141;54.616;39.754;2023-07-22T16:24:38;1.95;;;1.17;;
74636;SDS011;63141;54.616;39.754;2023-07-22T16:27:39;2.20;;;1.35;;
74636;SDS011;63141;54.616;39.754;2023-07-22T16:30:41;1.77;;;1.17;;
74636;SDS011;63141;54.616;39.754;2023-07-22T16:33:42;1.98;;;1.08;;
74636;SDS011;63141;54.616;39.754;2023-07-22T16:36:43;1.40;;;0.82;;
74636;SDS011;63141;54.616;39.754;2023-07-22T16:39:45;2.75;;;1.50;;
74636;SDS011;63141;54.616;39.754;2023-07-22T16:42:46;2.20;;;1.45;;
74636;SDS011;63141;54.616;39.754;2023-07-22T16:45:47;2.10;;;1.35;;
74636;SDS011;63141;54.616;39.754;2023-07-22T16:48:48;2.65;;;1.23;;
74636;SDS011;63141;54.616;39.754;2023-07-22T16:51:50;1.70;;;1.30;;
74636;SDS011;63141;54.616;39.754;2023-07-22T16:54:51;2.10;;;1.38;;
74636;SDS011;63141;54.616;39.754;2023-07-22T16:57:52;1.83;;;1.30;;
74636;SDS011;63141;54.616;39.754;2023-07-22T17:00:56;2.10;;;1.10;;
74636;SDS011;63141;54.616;39.754;2023-07-22T17:03:58;2.38;;;1.40;;
74636;SDS011;63141;54.616;39.754;2023-07-22T17:07:01;1.95;;;1.30;;
74636;SDS011;63141;54.616;39.754;2023-07-22T17:10:04;2.92;;;1.20;;
74636;SDS011;63141;54.616;39.754;2023-07-22T17:13:05;1.52;;;1.10;;
74636;SDS011;63141;54.616;39.754;2023-07-22T17:16:07;1.80;;;1.25;;
74636;SDS011;63141;54.616;39.754;2023-07-22T17:19:08;2.10;;;1.48;;
74636;SDS011;63141;54.616;39.754;2023-07-22T17:22:09;2.35;;;1.45;;
74636;SDS011;63141;54.616;39.754;2023-07-22T17:25:11;2.42;;;1.35;;
74636;SDS011;63141;54.616;39.754;2023-07-22T17:28:12;2.05;;;1.42;;
74636;SDS011;63141;54.616;39.754;2023-07-22T17:31:13;2.13;;;1.55;;
74636;SDS011;63141;54.616;39.754;2023-07-22T17:34:15;1.73;;;1.20;;
74636;SDS011;63141;54.616;39.754;2023-07-22T17:37:16;6.50;;;1.30;;
74636;SDS011;63141;54.616;39.754;2023-07-22T17:40:17;5.53;;;1.40;;
74636;SDS011;63141;54.616;39.754;2023-07-22T17:43:19;4.13;;;1.20;;
74636;SDS011;63141;54.616;39.754;2023-07-22T17:46:20;3.08;;;1.40;;
74636;SDS011;63141;54.616;39.754;2023-07-22T17:49:21;4.53;;;1.45;;
74636;SDS011;63141;54.616;39.754;2023-07-22T17:52:23;4.30;;;1.40;;
74636;SDS011;63141;54.616;39.754;2023-07-22T17:55:25;4.10;;;1.38;;
74636;SDS011;63141;54.616;39.754;2023-07-22T17:58:26;2.47;;;1.25;;
74636;SDS011;63141;54.616;39.754;2023-07-22T18:01:30;91.95;;;78.82;;
74636;SDS011;63141;54.616;39.754;2023-07-22T18:04:32;6.07;;;3.05;;
74636;SDS011;63141;54.616;39.754;2023-07-22T18:07:36;5.35;;;1.73;;
74636;SDS011;63141;54.616;39.754;2023-07-22T18:10:38;8.45;;;2.00;;
74636;SDS011;63141;54.616;39.754;2023-07-22T18:13:39;10.15;;;1.90;;
74636;SDS011;63141;54.616;39.754;2023-07-22T18:16:40;9.30;;;1.77;;
74636;SDS011;63141;54.616;39.754;2023-07-22T18:19:42;3.20;;;1.60;;